Time;durP1;ratioP1;P1;durP2;ratioP2;P2;SDS_P1;SDS_P2;PMS_P1;PMS_P2;Temp;Humidity;BMP_temperature;BMP_pressure;BME280_temperature;BME280_humidity;BME280_pressure;Samples;Min_cycle;Max_cycle;Signal;HPM_P1;HPM_P2
2020/12/13 00:01:02;;;;;;;34.83;19.27;;;7.50;99.90;;;;;;5049744;28;20068;-83
2020/12/13 00:03:28;;;;;;;31.45;18.55;;;7.60;99.90;;;;;;5066604;28;20124;-84
2020/12/13 00:05:56;;;;;;;38.08;16.60;;;7.60;99.90;;;;;;5051752;28;20048;-84
2020/12/13 00:08:23;;;;;;;27.77;13.68;;;7.60;99.90;;;;;;5069093;28;20107;-83
2020/12/13 00:10:50;;;;;;;25.30;11.73;;;7.60;99.90;;;;;;5054911;28;20132;-83
2020/12/13 00:13:17;;;;;;;23.42;9.30;;;7.60;99.90;;;;;;5062287;28;20064;-83
2020/12/13 00:15:43;;;;;;;28.35;8.05;;;7.70;99.90;;;;;;5064132;28;20049;-83
2020/12/13 00:18:10;;;;;;;25.90;7.80;;;7.70;99.90;;;;;;5068334;28;20049;-84
2020/12/13 00:20:37;;;;;;;20.88;7.70;;;7.70;99.90;;;;;;5068954;28;20140;-83
2020/12/13 00:23:03;;;;;;;17.40;7.25;;;7.80;99.90;;;;;;5065535;28;20045;-84
2020/12/13 00:25:30;;;;;;;13.85;6.00;;;7.80;99.90;;;;;;5061103;28;20128;-84
2020/12/13 00:27:57;;;;;;;16.77;5.57;;;7.90;99.90;;;;;;5047983;28;20401;-83
2020/12/13 00:30:23;;;;;;;17.20;4.53;;;7.90;99.90;;;;;;5052935;28;20105;-84
2020/12/13 00:32:50;;;;;;;20.40;5.30;;;8.00;99.90;;;;;;5055829;28;20103;-84
2020/12/13 00:35:17;;;;;;;17.58;4.60;;;8.00;99.90;;;;;;5057572;28;20056;-84
2020/12/13 00:37:44;;;;;;;15.70;4.50;;;8.10;99.90;;;;;;5055272;28;20052;-84
2020/12/13 00:40:10;;;;;;;17.23;3.97;;;8.10;99.90;;;;;;5059212;28;20444;-84
2020/12/13 00:42:37;;;;;;;16.27;3.88;;;8.10;99.90;;;;;;5065273;28;20087;-84
2020/12/13 00:45:04;;;;;;;17.27;3.35;;;8.20;99.90;;;;;;5064146;28;20052;-84
2020/12/13 00:47:32;;;;;;;23.42;3.78;;;8.20;99.90;;;;;;5062655;28;20502;-84
2020/12/13 00:49:58;;;;;;;18.52;3.33;;;8.20;99.90;;;;;;5062497;28;20413;-84
2020/12/13 00:52:26;;;;;;;15.48;2.78;;;8.30;99.90;;;;;;5062307;28;20433;-84
2020/12/13 00:54:53;;;;;;;21.08;3.08;;;8.30;99.90;;;;;;5067881;28;20048;-84
2020/12/13 00:57:24;;;;;;;16.95;2.42;;;8.40;99.90;;;;;;5067676;28;20121;-83
2020/12/13 00:59:51;;;;;;;22.55;2.85;;;8.40;99.90;;;;;;5085107;28;20055;-84
2020/12/13 01:02:17;;;;;;;22.70;2.78;;;8.40;99.90;;;;;;5057262;28;20107;-84
2020/12/13 01:04:46;;;;;;;20.17;2.50;;;8.50;99.90;;;;;;5066087;28;20542;-84
2020/12/13 01:07:13;;;;;;;22.63;2.65;;;8.50;99.90;;;;;;5064201;28;20228;-84
2020/12/13 01:09:40;;;;;;;28.63;3.50;;;8.60;99.90;;;;;;5066147;28;20037;-83
2020/12/13 01:12:07;;;;;;;23.40;2.60;;;8.60;99.90;;;;;;5052601;28;20061;-84
2020/12/13 01:14:33;;;;;;;20.48;2.42;;;8.60;99.90;;;;;;5067239;28;20047;-84
2020/12/13 01:17:00;;;;;;;14.73;2.95;;;8.60;99.90;;;;;;5068237;28;20052;-84
2020/12/13 01:19:27;;;;;;;18.85;2.90;;;8.70;99.90;;;;;;5065025;28;20049;-83
2020/12/13 01:21:56;;;;;;;24.58;2.63;;;8.70;99.90;;;;;;5058677;28;20048;-84
2020/12/13 01:24:23;;;;;;;21.60;2.65;;;8.70;99.90;;;;;;5058041;28;20055;-83
2020/12/13 01:26:50;;;;;;;13.38;1.80;;;8.80;99.90;;;;;;5058577;28;20057;-84
2020/12/13 01:29:16;;;;;;;19.40;2.83;;;8.80;99.90;;;;;;5053167;28;20048;-84
2020/12/13 01:31:45;;;;;;;22.45;2.75;;;8.80;99.90;;;;;;5064526;28;20049;-84
2020/12/13 01:34:12;;;;;;;;;;;8.90;99.90;;;;;;5068308;28;20044;-83
2020/12/13 01:36:38;;;;;;;11.98;2.00;;;8.90;99.90;;;;;;5070948;28;19970;-83
2020/12/13 01:39:05;;;;;;;11.98;2.28;;;9.00;99.90;;;;;;5059904;28;20380;-84
2020/12/13 01:41:32;;;;;;;13.82;1.85;;;9.00;99.90;;;;;;5062458;28;20057;-84
2020/12/13 01:44:05;;;;;;;13.07;2.03;;;9.00;99.90;;;;;;5068361;28;20094;-84
2020/12/13 01:46:34;;;;;;;16.00;2.00;;;9.10;99.90;;;;;;5062408;28;20054;-84
2020/12/13 01:49:06;;;;;;;13.98;2.08;;;9.10;99.90;;;;;;5062995;28;20052;-83
2020/12/13 01:54:12;;;;;;;16.35;2.83;;;9.10;99.90;;;;;;5060943;28;20435;-83
2020/12/13 01:56:48;;;;;;;13.27;2.25;;;9.10;99.90;;;;;;5062262;28;20055;-84
2020/12/13 01:59:20;;;;;;;11.88;1.80;;;9.10;99.90;;;;;;5071050;28;20052;-84
2020/12/13 02:02:01;;;;;;;14.25;1.77;;;9.20;99.90;;;;;;5062491;28;20443;-84
2020/12/13 02:04:30;;;;;;;11.50;1.77;;;9.20;99.90;;;;;;5067682;28;20051;-84
2020/12/13 02:07:01;;;;;;;19.30;2.15;;;9.20;99.90;;;;;;5051107;28;20076;-83
2020/12/13 02:09:28;;;;;;;16.80;1.77;;;9.30;99.90;;;;;;5069930;28;20052;-84
2020/12/13 02:11:54;;;;;;;9.15;2.20;;;9.30;99.90;;;;;;5067514;28;20045;-85
2020/12/13 02:14:21;;;;;;;10.63;1.45;;;9.30;99.90;;;;;;5059253;28;20418;-84
2020/12/13 02:16:51;;;;;;;7.47;1.85;;;9.30;99.90;;;;;;5058678;28;20049;-84
2020/12/13 02:19:19;;;;;;;8.48;1.92;;;9.40;99.90;;;;;;5057882;28;20076;-83
2020/12/13 02:21:49;;;;;;;11.67;1.60;;;9.40;99.90;;;;;;5049350;28;20057;-83
2020/12/13 02:24:16;;;;;;;15.52;1.83;;;9.40;99.90;;;;;;5062839;28;20048;-83
2020/12/13 02:26:45;;;;;;;8.93;1.38;;;9.40;99.90;;;;;;5063703;28;20410;-84
2020/12/13 02:29:12;;;;;;;9.95;1.50;;;9.50;99.90;;;;;;5070156;28;20053;-84
2020/12/13 02:31:39;;;;;;;12.93;1.75;;;9.50;99.90;;;;;;5063178;28;20467;-84
2020/12/13 02:34:06;;;;;;;8.93;1.30;;;9.50;99.90;;;;;;5053406;28;20061;-84
2020/12/13 02:36:33;;;;;;;13.60;1.60;;;9.50;99.90;;;;;;5066924;28;20049;-84
2020/12/13 02:39:01;;;;;;;10.05;1.65;;;9.50;99.90;;;;;;5065571;28;20103;-84
2020/12/13 02:41:27;;;;;;;9.98;1.38;;;9.60;99.90;;;;;;5065232;28;20049;-84
2020/12/13 02:43:54;;;;;;;11.90;1.08;;;9.60;99.90;;;;;;5060965;28;20052;-84
2020/12/13 02:46:21;;;;;;;12.18;1.30;;;9.60;99.90;;;;;;5058885;28;20048;-84
2020/12/13 02:48:48;;;;;;;11.65;1.40;;;9.60;99.90;;;;;;5061377;28;20084;-84
2020/12/13 02:51:15;;;;;;;9.30;0.98;;;9.70;99.90;;;;;;5064791;28;20056;-83
2020/12/13 02:53:41;;;;;;;8.18;1.10;;;9.70;99.90;;;;;;5070969;28;20052;-84
2020/12/13 02:56:08;;;;;;;5.82;0.80;;;9.80;99.90;;;;;;5058875;28;20053;-84
2020/12/13 02:58:35;;;;;;;5.53;0.98;;;9.80;99.90;;;;;;5060563;28;20044;-84
2020/12/13 03:01:02;;;;;;;5.80;1.02;;;9.80;99.90;;;;;;5065872;28;20049;-84
2020/12/13 03:03:29;;;;;;;5.38;0.90;;;9.90;99.90;;;;;;5057452;28;20106;-83
2020/12/13 03:05:55;;;;;;;5.90;0.70;;;9.90;99.90;;;;;;5057411;28;20504;-84
2020/12/13 03:08:22;;;;;;;3.22;0.57;;;10.00;99.90;;;;;;5066298;28;20059;-84
2020/12/13 03:10:49;;;;;;;6.60;0.60;;;10.00;99.90;;;;;;5066467;28;20051;-83
2020/12/13 03:13:15;;;;;;;3.50;0.60;;;10.00;99.90;;;;;;5065804;28;20048;-84
2020/12/13 03:15:43;;;;;;;3.22;0.43;;;10.10;99.90;;;;;;5066872;28;20047;-84
2020/12/13 03:18:09;;;;;;;2.90;0.60;;;10.10;99.90;;;;;;5056663;28;20044;-83
2020/12/13 03:20:36;;;;;;;6.78;0.57;;;10.10;99.90;;;;;;5066321;28;20424;-84
2020/12/13 03:23:03;;;;;;;6.57;0.98;;;10.20;99.90;;;;;;5062847;28;20457;-84
2020/12/13 03:25:29;;;;;;;3.72;0.47;;;10.20;99.90;;;;;;5056149;28;20073;-83
2020/12/13 03:27:56;;;;;;;4.40;0.70;;;10.20;99.90;;;;;;5058376;28;20060;-84
2020/12/13 03:30:22;;;;;;;5.32;0.70;;;10.30;99.90;;;;;;5067093;28;20053;-84
2020/12/13 03:32:49;;;;;;;3.83;0.85;;;10.30;99.90;;;;;;5059600;28;20099;-84
2020/12/13 03:35:16;;;;;;;3.58;0.75;;;10.30;99.90;;;;;;5061211;28;20135;-83
2020/12/13 03:37:43;;;;;;;4.88;0.95;;;10.40;99.90;;;;;;5057670;28;20492;-84
2020/12/13 03:40:11;;;;;;;5.63;0.90;;;10.40;99.90;;;;;;5067491;28;20045;-84
2020/12/13 03:42:41;;;;;;;4.03;0.63;;;10.40;99.90;;;;;;5044436;28;20053;-84
2020/12/13 03:45:09;;;;;;;6.82;0.90;;;10.40;99.90;;;;;;5063323;28;20069;-84
2020/12/13 03:47:36;;;;;;;4.38;0.63;;;10.50;99.90;;;;;;5063374;28;20056;-84
2020/12/13 03:50:04;;;;;;;5.18;0.60;;;10.50;99.90;;;;;;5066323;28;20045;-84
2020/12/13 03:52:30;;;;;;;4.32;0.70;;;10.50;99.90;;;;;;5064225;28;20470;-84
2020/12/13 03:54:57;;;;;;;3.25;0.90;;;10.50;99.90;;;;;;5073104;28;20048;-83
2020/12/13 03:57:25;;;;;;;4.78;0.50;;;10.50;99.90;;;;;;5065623;28;20063;-84
2020/12/13 03:59:51;;;;;;;4.40;0.47;;;10.50;99.90;;;;;;5056212;28;20071;-84
2020/12/13 04:02:18;;;;;;;3.78;0.38;;;10.60;99.90;;;;;;5060425;28;20478;-83
2020/12/13 04:04:45;;;;;;;2.92;0.35;;;10.60;99.90;;;;;;5059914;28;20124;-84
2020/12/13 04:07:12;;;;;;;1.67;0.60;;;10.70;99.90;;;;;;5057591;28;20049;-84
2020/12/13 04:09:38;;;;;;;2.70;0.30;;;10.70;99.90;;;;;;5059063;28;20405;-84
2020/12/13 04:12:05;;;;;;;1.23;0.30;;;10.70;99.90;;;;;;5067955;28;20044;-83
2020/12/13 04:14:32;;;;;;;1.10;0.25;;;10.70;99.90;;;;;;5056362;28;20102;-84
2020/12/13 04:16:58;;;;;;;1.17;0.30;;;10.80;99.90;;;;;;5058638;28;20099;-83
2020/12/13 04:19:25;;;;;;;1.85;0.30;;;10.80;99.90;;;;;;5052276;28;20049;-84
2020/12/13 04:21:51;;;;;;;2.92;0.30;;;10.80;99.90;;;;;;5060039;28;20051;-84
2020/12/13 04:24:18;;;;;;;1.70;0.20;;;10.80;99.90;;;;;;5054663;28;20548;-84
2020/12/13 04:26:46;;;;;;;1.58;0.25;;;10.90;99.90;;;;;;5063899;28;20052;-84
2020/12/13 04:29:12;;;;;;;1.98;0.10;;;10.90;99.90;;;;;;5063386;28;20044;-84
2020/12/13 04:31:39;;;;;;;1.10;0.20;;;10.90;99.90;;;;;;5063346;28;20082;-84
2020/12/13 04:34:06;;;;;;;1.77;0.40;;;11.00;99.90;;;;;;5053283;28;21250;-84
2020/12/13 04:36:32;;;;;;;2.20;0.40;;;11.00;99.90;;;;;;5056341;28;20060;-84
2020/12/13 04:38:59;;;;;;;2.47;0.50;;;11.00;99.90;;;;;;5057338;28;20528;-83
2020/12/13 04:41:25;;;;;;;2.53;0.38;;;11.10;99.90;;;;;;5066757;28;20052;-84
2020/12/13 04:43:53;;;;;;;1.30;0.30;;;11.10;99.90;;;;;;5063895;28;20094;-84
2020/12/13 04:46:26;;;;;;;0.63;0.15;;;11.10;99.90;;;;;;5062815;28;20037;-84
2020/12/13 04:48:53;;;;;;;1.17;0.20;;;11.10;99.90;;;;;;5060654;28;20053;-84
2020/12/13 04:51:24;;;;;;;1.63;0.22;;;11.20;99.90;;;;;;5066855;28;20049;-84
2020/12/13 04:54:02;;;;;;;0.70;0.10;;;11.20;99.90;;;;;;5060775;28;20425;-84
2020/12/13 04:56:32;;;;;;;1.63;0.32;;;11.20;99.90;;;;;;5065377;28;20124;-84
2020/12/13 04:59:04;;;;;;;2.13;0.20;;;11.30;99.90;;;;;;5071620;28;20052;-84
2020/12/13 05:01:30;;;;;;;1.65;0.40;;;11.30;99.90;;;;;;5067250;28;20060;-84
2020/12/13 05:03:58;;;;;;;1.45;0.32;;;11.30;99.90;;;;;;5071488;28;20056;-83
2020/12/13 05:06:30;;;;;;;1.30;0.38;;;11.30;99.90;;;;;;5066489;28;20411;-83
2020/12/13 05:08:56;;;;;;;1.92;0.50;;;11.30;99.90;;;;;;5061105;28;20057;-84
2020/12/13 05:11:23;;;;;;;3.15;0.60;;;11.40;99.90;;;;;;5071405;28;20064;-84
2020/12/13 05:13:50;;;;;;;7.05;1.20;;;11.40;99.90;;;;;;5069161;28;20102;-84
2020/12/13 05:16:17;;;;;;;13.38;1.35;;;11.40;99.90;;;;;;5070367;28;20097;-84
2020/12/13 05:18:44;;;;;;;11.98;1.73;;;11.50;99.90;;;;;;5058260;28;20052;-83
2020/12/13 05:21:11;;;;;;;38.58;2.40;;;11.50;99.90;;;;;;5065783;28;20040;-84
2020/12/13 05:23:38;;;;;;;16.10;1.90;;;11.50;99.90;;;;;;5070752;28;20114;-83
2020/12/13 05:26:04;;;;;;;25.70;2.30;;;11.60;99.90;;;;;;5071353;28;20064;-83
2020/12/13 05:28:33;;;;;;;22.38;2.58;;;11.60;99.90;;;;;;5069449;28;20106;-83
2020/12/13 05:31:01;;;;;;;18.98;2.50;;;11.60;99.90;;;;;;5075233;28;20433;-83
2020/12/13 05:33:35;;;;;;;21.50;3.05;;;11.60;99.90;;;;;;5073717;28;20048;-83
2020/12/13 05:36:10;;;;;;;19.95;3.15;;;11.70;99.90;;;;;;5064220;28;20102;-83
2020/12/13 05:38:39;;;;;;;16.17;2.92;;;11.70;99.90;;;;;;5068247;28;20052;-83
2020/12/13 05:41:07;;;;;;;15.77;3.15;;;11.70;99.90;;;;;;5072753;28;20052;-83
2020/12/13 05:43:45;;;;;;;26.88;3.63;;;11.70;99.90;;;;;;5065261;28;20256;-83
2020/12/13 05:51:40;;;;;;;32.88;4.30;;;11.80;99.90;;;;;;5063044;28;20436;-83
2020/12/13 05:54:18;;;;;;;35.00;4.47;;;11.80;99.90;;;;;;5064298;28;20073;-84
2020/12/13 05:56:51;;;;;;;26.88;4.35;;;11.80;99.90;;;;;;5060147;28;20079;-84
2020/12/13 05:59:18;;;;;;;35.00;5.70;;;11.90;99.90;;;;;;5065353;28;20471;-84
2020/12/13 06:01:48;;;;;;;37.15;6.93;;;11.90;99.90;;;;;;5058685;28;20045;-84
2020/12/13 06:04:17;;;;;;;57.55;6.25;;;12.00;99.90;;;;;;5056655;28;20055;-84
2020/12/13 06:06:44;;;;;;;56.38;6.57;;;12.00;99.90;;;;;;5068850;28;20121;-84
2020/12/13 06:09:13;;;;;;;50.38;7.25;;;12.00;99.90;;;;;;5069454;28;20055;-83
2020/12/13 06:11:48;;;;;;;59.03;6.95;;;12.10;99.90;;;;;;5060941;28;20483;-83
2020/12/13 06:14:20;;;;;;;57.63;7.18;;;12.10;99.90;;;;;;5067126;28;20052;-84
2020/12/13 06:16:49;;;;;;;45.88;6.13;;;12.10;99.90;;;;;;5061405;28;20054;-83
2020/12/13 06:19:26;;;;;;;;;;;12.20;99.90;;;;;;5052578;28;20459;-83
2020/12/13 06:21:55;;;;;;;54.28;6.93;;;12.20;99.90;;;;;;5058705;28;19920;-83
2020/12/13 06:24:23;;;;;;;52.15;6.50;;;12.20;99.90;;;;;;5058472;28;20053;-83
2020/12/13 06:26:51;;;;;;;48.08;5.85;;;12.30;99.90;;;;;;5065378;28;20053;-83
2020/12/13 06:29:23;;;;;;;34.75;4.88;;;12.30;99.90;;;;;;5062559;28;20072;-83
2020/12/13 06:31:51;;;;;;;45.80;5.13;;;12.30;99.90;;;;;;5061839;28;20099;-83
2020/12/13 06:34:18;;;;;;;36.57;4.63;;;12.30;99.90;;;;;;5056261;28;20057;-84
2020/12/13 06:36:45;;;;;;;26.33;4.35;;;12.40;99.90;;;;;;5059754;28;20303;-83
2020/12/13 06:39:17;;;;;;;22.58;3.60;;;12.40;99.90;;;;;;5066044;28;20153;-84
2020/12/13 06:41:47;;;;;;;28.70;3.65;;;12.40;99.90;;;;;;5065903;28;20512;-84
2020/12/13 06:44:14;;;;;;;31.52;3.20;;;12.40;99.90;;;;;;5059881;28;20404;-84
2020/12/13 06:46:46;;;;;;;28.83;3.60;;;12.40;99.90;;;;;;5063958;28;20139;-84
2020/12/13 06:49:15;;;;;;;30.67;3.42;;;12.40;99.90;;;;;;5057078;28;20052;-84
2020/12/13 06:51:43;;;;;;;34.95;3.38;;;12.40;99.90;;;;;;5067181;28;20098;-83
2020/12/13 06:54:13;;;;;;;19.67;3.10;;;12.40;99.90;;;;;;5061268;28;20482;-84
2020/12/13 06:56:41;;;;;;;18.98;2.83;;;12.40;99.90;;;;;;5055929;28;20061;-84
2020/12/13 06:59:09;;;;;;;23.63;2.80;;;12.40;99.90;;;;;;5065589;28;20490;-84
2020/12/13 07:01:38;;;;;;;14.43;3.35;;;12.40;99.90;;;;;;5061801;28;20055;-83
2020/12/13 07:04:20;;;;;;;24.55;3.33;;;12.40;99.90;;;;;;5053609;28;20041;-83
2020/12/13 07:07:16;;;;;;;28.17;3.58;;;12.50;99.90;;;;;;5055299;28;20106;-83
2020/12/13 07:09:39;;;;;;;24.25;4.05;;;12.40;99.90;;;;;;5058358;28;20049;-84
2020/12/13 07:12:06;;;;;;;22.38;3.03;;;12.40;99.90;;;;;;5065924;28;20474;-83
2020/12/13 07:14:35;;;;;;;18.48;3.00;;;12.40;99.90;;;;;;5056476;28;20060;-84
2020/12/13 07:17:12;;;;;;;;;;;12.40;99.90;;;;;;5063230;28;20504;-83
2020/12/13 07:19:39;;;;;;;12.02;1.95;;;12.40;99.90;;;;;;5083417;28;19943;-83
2020/12/13 07:22:11;;;;;;;13.43;2.55;;;12.40;99.90;;;;;;5051318;28;20176;-81
2020/12/13 07:24:42;;;;;;;15.02;2.47;;;12.40;99.90;;;;;;5054500;28;20474;-83
2020/12/13 07:27:10;;;;;;;13.93;2.80;;;12.40;99.90;;;;;;5060271;28;20072;-83
2020/12/13 07:29:37;;;;;;;14.75;2.80;;;12.50;99.90;;;;;;5062933;28;20048;-83
2020/12/13 07:32:06;;;;;;;11.82;2.38;;;12.50;99.90;;;;;;5058621;28;20049;-83
2020/12/13 07:34:34;;;;;;;15.02;2.47;;;12.40;99.90;;;;;;5060367;28;20052;-83
2020/12/13 07:37:02;;;;;;;14.13;3.03;;;12.50;99.90;;;;;;5053648;28;20127;-83
2020/12/13 07:39:29;;;;;;;15.60;2.28;;;12.50;99.90;;;;;;5057803;28;20044;-83
2020/12/13 07:41:56;;;;;;;11.75;2.40;;;12.50;99.90;;;;;;5052714;28;20060;-83
2020/12/13 07:44:23;;;;;;;10.23;2.63;;;12.50;99.90;;;;;;5053545;28;20119;-83
2020/12/13 07:46:50;;;;;;;10.70;2.40;;;12.40;99.90;;;;;;5058524;28;20055;-83
2020/12/13 07:49:21;;;;;;;8.82;2.30;;;12.40;99.90;;;;;;5061287;28;20048;-84
2020/12/13 07:51:49;;;;;;;10.68;2.28;;;12.40;99.90;;;;;;5055486;28;20428;-84
2020/12/13 07:54:32;;;;;;;12.30;2.38;;;12.50;99.90;;;;;;5059394;28;20075;-83
2020/12/13 07:57:16;;;;;;;12.13;2.30;;;12.50;99.90;;;;;;5060815;28;20095;-83
2020/12/13 07:59:42;;;;;;;11.82;2.30;;;12.50;99.90;;;;;;5054687;28;20485;-83
2020/12/13 08:02:11;;;;;;;13.13;2.50;;;12.50;99.90;;;;;;5056218;28;20049;-83
2020/12/13 08:04:43;;;;;;;12.05;2.75;;;12.50;99.90;;;;;;5057275;28;20053;-83
2020/12/13 08:07:11;;;;;;;14.93;3.20;;;12.50;99.90;;;;;;5058242;28;20060;-84
2020/12/13 08:09:41;;;;;;;15.30;3.15;;;12.50;99.90;;;;;;5054251;28;20048;-84
2020/12/13 08:12:09;;;;;;;28.08;3.70;;;12.50;99.90;;;;;;5057198;28;20402;-83
2020/12/13 08:14:36;;;;;;;25.45;3.97;;;12.50;99.90;;;;;;5060024;28;20045;-83
2020/12/13 08:17:02;;;;;;;18.77;3.55;;;12.50;99.90;;;;;;5056531;28;20155;-83
2020/12/13 08:19:48;;;;;;;27.90;3.78;;;12.50;99.90;;;;;;5059017;28;20397;-84
2020/12/13 08:22:20;;;;;;;25.55;3.50;;;12.50;99.90;;;;;;5060044;28;20107;-84
2020/12/13 08:24:55;;;;;;;23.33;3.67;;;12.50;99.90;;;;;;5064040;28;20056;-84
2020/12/13 08:27:24;;;;;;;24.00;3.60;;;12.50;99.90;;;;;;5058510;28;20045;-84
2020/12/13 08:29:51;;;;;;;;;;;12.60;99.90;;;;;;5058380;28;20080;-84
2020/12/13 08:32:23;;;;;;;15.75;2.53;;;12.50;99.90;;;;;;5060200;28;19930;-84
2020/12/13 08:34:51;;;;;;;16.20;3.38;;;12.50;99.90;;;;;;5062343;28;20048;-84
2020/12/13 08:37:24;;;;;;;16.98;2.30;;;12.60;99.90;;;;;;5064178;28;20044;-84
2020/12/13 08:39:52;;;;;;;21.17;3.35;;;12.60;99.90;;;;;;5062511;28;20485;-84
2020/12/13 08:42:23;;;;;;;22.75;3.22;;;12.60;99.90;;;;;;5059191;28;20486;-84
2020/12/13 08:44:51;;;;;;;28.92;3.58;;;12.60;99.90;;;;;;5059937;28;20381;-84
2020/12/13 08:47:19;;;;;;;29.25;3.92;;;12.70;99.90;;;;;;5059804;28;20045;-83
2020/12/13 08:49:50;;;;;;;34.17;4.47;;;12.70;99.90;;;;;;5057389;28;20049;-84
2020/12/13 08:52:16;;;;;;;29.02;3.92;;;12.70;99.90;;;;;;5058264;28;20057;-84
2020/12/13 08:54:59;;;;;;;25.33;3.65;;;12.70;99.90;;;;;;5055203;28;20118;-83
2020/12/13 08:57:30;;;;;;;30.38;4.07;;;12.70;99.90;;;;;;5055352;28;20508;-83
2020/12/13 09:00:02;;;;;;;24.52;3.17;;;12.70;99.90;;;;;;5056439;28;20126;-84
2020/12/13 09:03:04;;;;;;;24.55;3.30;;;12.80;99.90;;;;;;5050676;28;20155;-85
2020/12/13 09:05:34;;;;;;;27.95;4.05;;;12.80;99.90;;;;;;5059160;28;20121;-83
2020/12/13 09:08:01;;;;;;;30.73;4.05;;;12.80;99.90;;;;;;5057389;28;20131;-84
2020/12/13 09:10:36;;;;;;;34.88;3.70;;;12.80;99.90;;;;;;5058672;28;20044;-84
2020/12/13 09:13:07;;;;;;;25.77;4.78;;;12.80;99.90;;;;;;5056773;28;20084;-83
2020/12/13 09:15:34;;;;;;;30.73;3.95;;;12.90;99.90;;;;;;5059100;28;20155;-83
2020/12/13 09:18:02;;;;;;;27.88;4.22;;;12.80;99.90;;;;;;5060337;28;20057;-84
2020/12/13 09:20:30;;;;;;;29.02;3.58;;;12.90;99.90;;;;;;5057952;28;20068;-83
2020/12/13 09:23:12;;;;;;;22.85;3.28;;;12.80;99.90;;;;;;5056641;28;20053;-83
2020/12/13 09:25:45;;;;;;;23.50;4.53;;;12.90;99.90;;;;;;5057807;28;20434;-84
2020/12/13 09:28:13;;;;;;;21.83;3.70;;;12.80;99.90;;;;;;5056833;28;20057;-83
2020/12/13 09:30:41;;;;;;;24.30;3.28;;;12.80;99.90;;;;;;5057930;28;20533;-83
2020/12/13 09:33:09;;;;;;;26.73;3.03;;;12.80;99.90;;;;;;5059920;28;20061;-83
2020/12/13 09:35:37;;;;;;;20.42;2.92;;;12.90;99.90;;;;;;5059641;28;20045;-83
2020/12/13 09:38:06;;;;;;;23.90;3.30;;;12.80;99.90;;;;;;5058885;28;20396;-84
2020/12/13 09:40:33;;;;;;;17.88;2.83;;;12.80;99.90;;;;;;5059322;28;20057;-84
2020/12/13 09:43:01;;;;;;;22.65;2.38;;;12.80;99.90;;;;;;5064573;28;20056;-84
2020/12/13 09:45:28;;;;;;;22.95;2.85;;;12.80;99.90;;;;;;5060259;28;20502;-83
2020/12/13 09:47:58;;;;;;;24.48;3.10;;;12.80;99.90;;;;;;5060776;28;20053;-84
2020/12/13 09:50:27;;;;;;;20.38;3.08;;;12.80;99.90;;;;;;5063508;28;20043;-84
2020/12/13 09:52:54;;;;;;;20.00;3.35;;;12.80;99.90;;;;;;5059410;28;20386;-84
2020/12/13 09:55:21;;;;;;;26.38;3.25;;;12.80;99.90;;;;;;5060866;28;20052;-83
2020/12/13 09:57:47;;;;;;;29.30;3.50;;;12.80;99.90;;;;;;5063255;28;20152;-84
2020/12/13 10:00:14;;;;;;;28.00;3.63;;;12.80;99.90;;;;;;5062736;28;20080;-83
2020/12/13 10:02:42;;;;;;;32.70;4.32;;;12.80;99.90;;;;;;5061281;28;20380;-84
2020/12/13 10:06:00;;;;;;;33.92;3.28;;;12.80;99.90;;;;;;5065164;28;20060;-84
2020/12/13 10:10:41;;;;;;;35.83;3.85;;;12.80;99.90;;;;;;5062600;28;20041;-84
2020/12/13 10:13:08;;;;;;;28.25;4.10;;;12.80;99.90;;;;;;5059906;28;20114;-84
2020/12/13 10:15:35;;;;;;;24.40;4.28;;;12.80;99.90;;;;;;5062510;28;20091;-85
2020/12/13 10:18:03;;;;;;;36.60;4.18;;;12.90;99.90;;;;;;5062660;28;20132;-84
2020/12/13 10:20:30;;;;;;;43.38;5.03;;;12.80;99.90;;;;;;5057976;28;20489;-84
2020/12/13 10:22:57;;;;;;;28.05;3.28;;;12.90;99.90;;;;;;5059926;28;20068;-84
2020/12/13 10:25:23;;;;;;;43.08;4.57;;;12.90;99.90;;;;;;5060594;28;20052;-84
2020/12/13 10:27:50;;;;;;;31.75;3.15;;;12.90;99.90;;;;;;5059081;28;20490;-84
2020/12/13 10:30:17;;;;;;;36.10;4.00;;;12.90;99.90;;;;;;5065544;28;20052;-84
2020/12/13 10:32:43;;;;;;;29.30;3.20;;;12.90;99.90;;;;;;5059265;28;20052;-84
2020/12/13 10:35:10;;;;;;;31.20;3.80;;;12.90;99.90;;;;;;5059485;28;20052;-84
2020/12/13 10:37:36;;;;;;;34.28;4.10;;;12.90;99.90;;;;;;5063594;28;20059;-84
2020/12/13 10:40:03;;;;;;;24.85;3.53;;;12.90;99.90;;;;;;5065510;28;20372;-84
2020/12/13 10:42:31;;;;;;;31.23;3.75;;;13.00;99.90;;;;;;5062721;28;20127;-82
2020/12/13 10:44:57;;;;;;;38.85;4.32;;;12.90;99.90;;;;;;5058822;28;20072;-82
2020/12/13 10:47:24;;;;;;;41.15;4.50;;;12.90;99.90;;;;;;5062173;28;20052;-83
2020/12/13 10:49:51;;;;;;;31.33;3.75;;;12.90;99.90;;;;;;5057972;28;20048;-82
2020/12/13 10:52:18;;;;;;;31.85;3.35;;;12.90;99.90;;;;;;5053560;28;20402;-82
2020/12/13 10:54:45;;;;;;;31.60;3.80;;;12.90;99.90;;;;;;5063479;28;20040;-83
2020/12/13 10:57:12;;;;;;;36.78;4.60;;;12.90;99.90;;;;;;5060380;28;20056;-82
2020/12/13 10:59:39;;;;;;;27.83;4.07;;;12.90;99.90;;;;;;5041880;28;20094;-83
2020/12/13 11:02:06;;;;;;;31.42;3.70;;;12.90;99.90;;;;;;5064158;28;20399;-82
2020/12/13 11:04:33;;;;;;;23.52;4.25;;;12.90;99.90;;;;;;5059036;28;20138;-82
2020/12/13 11:07:00;;;;;;;27.77;3.95;;;12.90;99.90;;;;;;5059253;28;20052;-82
2020/12/13 11:09:27;;;;;;;39.42;4.63;;;13.00;99.90;;;;;;5060217;28;20048;-82
2020/12/13 11:11:54;;;;;;;37.70;4.88;;;13.00;99.90;;;;;;5062886;28;20071;-81
2020/12/13 11:14:21;;;;;;;28.23;3.70;;;13.00;99.90;;;;;;5060888;28;20041;-82
2020/12/13 11:16:48;;;;;;;45.53;4.78;;;13.00;99.90;;;;;;5061098;28;20048;-83
2020/12/13 11:19:15;;;;;;;41.83;4.05;;;13.00;99.90;;;;;;5059249;28;20106;-82
2020/12/13 11:21:45;;;;;;;30.00;4.47;;;13.00;99.90;;;;;;5060684;28;20123;-83
2020/12/13 11:24:12;;;;;;;39.83;5.00;;;13.00;99.90;;;;;;5062320;28;20062;-82
2020/12/13 11:26:39;;;;;;;50.40;4.78;;;13.10;99.90;;;;;;5062970;28;20044;-82
2020/12/13 11:29:06;;;;;;;40.33;4.68;;;13.10;99.90;;;;;;5060553;28;20064;-82
2020/12/13 11:31:33;;;;;;;40.60;4.18;;;13.00;99.90;;;;;;5060144;28;20083;-83
2020/12/13 11:34:00;;;;;;;47.40;5.15;;;13.10;99.90;;;;;;5050952;28;20106;-82
2020/12/13 11:36:27;;;;;;;34.03;4.20;;;13.10;99.90;;;;;;5060979;28;20045;-83
2020/12/13 11:38:54;;;;;;;37.78;4.57;;;13.10;99.90;;;;;;5056178;28;20053;-83
2020/12/13 11:41:27;;;;;;;37.15;4.53;;;13.10;99.90;;;;;;5060421;28;20051;-83
2020/12/13 11:43:55;;;;;;;33.83;4.45;;;13.20;99.90;;;;;;5060369;28;20102;-83
2020/12/13 11:46:22;;;;;;;45.35;7.35;;;13.10;99.90;;;;;;5061342;28;20509;-83
2020/12/13 11:48:48;;;;;;;41.88;5.10;;;13.20;99.90;;;;;;5059073;28;20143;-83
2020/12/13 11:51:15;;;;;;;28.98;4.93;;;13.20;99.90;;;;;;5059872;28;20468;-83
2020/12/13 11:53:42;;;;;;;39.65;5.28;;;13.20;99.90;;;;;;5059186;28;20163;-82
2020/12/13 11:56:09;;;;;;;32.80;4.32;;;13.30;99.90;;;;;;5056567;28;20049;-82
2020/12/13 11:58:35;;;;;;;46.25;10.88;;;13.20;99.90;;;;;;5057129;28;20402;-82
2020/12/13 12:01:07;;;;;;;36.72;5.07;;;13.20;99.90;;;;;;5061866;28;20064;-83
2020/12/13 12:03:35;;;;;;;45.22;4.70;;;13.20;99.90;;;;;;5046900;28;20057;-82
2020/12/13 12:06:03;;;;;;;31.55;4.00;;;13.20;99.90;;;;;;5058309;28;20045;-82
2020/12/13 12:08:29;;;;;;;37.28;4.40;;;13.20;99.90;;;;;;5059746;28;20084;-82
2020/12/13 12:10:57;;;;;;;28.75;4.18;;;13.20;99.90;;;;;;5058056;28;20044;-82
2020/12/13 12:13:24;;;;;;;31.95;4.43;;;13.20;99.90;;;;;;5061272;28;20122;-83
2020/12/13 12:15:51;;;;;;;35.83;4.80;;;13.20;99.90;;;;;;5056100;28;20048;-82
2020/12/13 12:18:18;;;;;;;30.05;3.97;;;13.20;99.90;;;;;;5059682;28;20048;-82
2020/12/13 12:20:44;;;;;;;35.97;5.55;;;13.20;99.90;;;;;;5061069;28;20057;-82
2020/12/13 12:23:11;;;;;;;25.63;4.63;;;13.20;99.90;;;;;;5058915;28;20055;-82
2020/12/13 12:25:38;;;;;;;36.50;4.80;;;13.20;99.90;;;;;;5059723;28;20055;-83
2020/12/13 12:28:05;;;;;;;29.33;4.28;;;13.20;99.90;;;;;;5060746;28;20052;-82
2020/12/13 12:30:32;;;;;;;38.38;8.00;;;13.20;99.90;;;;;;5056654;28;20394;-82
2020/12/13 12:33:03;;;;;;;36.80;5.55;;;13.20;99.90;;;;;;5057202;28;20409;-83
2020/12/13 12:35:30;;;;;;;35.60;4.90;;;13.20;99.90;;;;;;5061989;28;20079;-82
2020/12/13 12:37:56;;;;;;;42.67;13.18;;;13.20;99.90;;;;;;5049939;28;20061;-82
2020/12/13 12:40:23;;;;;;;45.72;9.48;;;13.20;99.90;;;;;;5057458;28;20060;-82
2020/12/13 12:42:50;;;;;;;31.10;5.50;;;13.20;99.90;;;;;;5060923;28;20367;-82
2020/12/13 12:45:17;;;;;;;45.13;9.02;;;13.20;99.90;;;;;;5055426;28;20072;-82
2020/12/13 12:47:43;;;;;;;40.13;12.98;;;13.20;99.90;;;;;;5056860;28;20458;-82
2020/12/13 12:50:10;;;;;;;60.75;33.38;;;13.30;99.90;;;;;;5058722;28;20311;-82
2020/12/13 12:52:36;;;;;;;41.80;8.52;;;13.30;99.90;;;;;;5062398;28;20068;-82
2020/12/13 12:55:03;;;;;;;31.17;4.40;;;13.30;99.90;;;;;;5056775;28;20143;-81
2020/12/13 12:57:30;;;;;;;31.95;3.78;;;13.30;99.90;;;;;;5058262;28;20072;-82
2020/12/13 13:02:36;;;;;;;21.63;3.88;;;13.30;99.90;;;;;;5059955;28;20485;-81